Time;durP1;ratioP1;P1;durP2;ratioP2;P2;SDS_P1;SDS_P2;PMS_P1;PMS_P2;Temp;Humidity;BMP_temperature;BMP_pressure;BME280_temperature;BME280_humidity;BME280_pressure;Samples;Min_cycle;Max_cycle;Signal;HPM_P1;HPM_P2
2021/12/11 00:00:24;;;;;;;6.28;2.40;;;;;;;20.04;52.53;95425.06;10464964;28;20036;-21
2021/12/11 00:05:25;;;;;;;7.32;2.28;;;;;;;19.96;52.75;95426.09;10455500;28;20127;-23
2021/12/11 00:10:33;;;;;;;4.25;2.10;;;;;;;19.97;52.66;95437.91;10468850;28;20082;-20
2021/12/11 00:15:39;;;;;;;4.28;2.20;;;;;;;20.01;52.76;95462.38;10464068;28;20170;-20
2021/12/11 00:20:48;;;;;;;2.63;2.10;;;;;;;19.95;52.82;95454.91;10458029;28;20033;-20
2021/12/11 00:25:48;;;;;;;4.22;2.60;;;;;;;20.01;52.85;95470.81;10463982;28;20163;-20
2021/12/11 00:30:49;;;;;;;4.80;2.83;;;;;;;20.04;52.48;95490.25;10469874;28;20033;-20
2021/12/11 00:35:56;;;;;;;3.80;1.80;;;;;;;20.05;52.54;95479.22;10465716;28;20120;-20
2021/12/11 00:40:56;;;;;;;5.28;2.30;;;;;;;19.99;52.15;95471.72;10460582;28;20397;-20
2021/12/11 00:45:58;;;;;;;4.35;1.70;;;;;;;20.10;52.58;95497.75;10460504;28;20068;-20
2021/12/11 00:51:08;;;;;;;3.80;2.03;;;;;;;20.10;52.27;95505.38;10462400;28;20029;-20
2021/12/11 00:56:12;;;;;;;4.82;2.00;;;;;;;20.05;52.49;95530.06;10460761;28;20111;-20
2021/12/11 01:01:21;;;;;;;3.70;1.98;;;;;;;20.01;53.08;95520.81;10455843;28;20051;-20
2021/12/11 01:06:28;;;;;;;5.53;2.20;;;;;;;19.94;53.18;95525.19;10460932;28;20020;-20
2021/12/11 01:11:31;;;;;;;8.15;2.38;;;;;;;19.90;53.33;95522.78;10460771;28;20033;-21
2021/12/11 01:16:32;;;;;;;3.97;2.42;;;;;;;20.00;53.27;95549.63;10457621;28;20029;-20
2021/12/11 01:26:42;;;;;;;3.28;1.92;;;;;;;20.08;53.18;95563.03;10464617;28;20031;-20
2021/12/11 01:31:44;;;;;;;3.07;1.70;;;;;;;20.02;53.42;95578.38;10475333;28;20119;-20
2021/12/11 01:36:45;;;;;;;7.32;2.80;;;;;;;19.94;53.40;95568.38;10475516;28;20033;-20
2021/12/11 01:41:47;;;;;;;2.65;1.85;;;;;;;20.03;53.22;95587.66;10468377;28;20101;-20
2021/12/11 01:46:48;;;;;;;4.03;2.05;;;;;;;20.01;53.42;95599.56;10475706;28;20032;-20
2021/12/11 01:51:57;;;;;;;7.78;2.75;;;;;;;19.96;53.35;95593.75;10463248;28;20033;-20
2021/12/11 01:57:01;;;;;;;4.20;2.13;;;;;;;20.01;53.48;95607.19;10472703;28;20071;-20
2021/12/11 02:02:04;;;;;;;4.40;2.08;;;;;;;19.95;53.54;95612.41;10467329;28;20028;-20
2021/12/11 02:07:15;;;;;;;2.58;1.63;;;;;;;20.07;53.25;95620.63;10464082;28;20021;-20
2021/12/11 02:12:31;;;;;;;4.88;1.95;;;;;;;20.04;53.43;95632.53;10465411;28;20032;-21
2021/12/11 02:17:37;;;;;;;5.35;1.92;;;;;;;20.01;53.41;95645.31;10466285;28;20025;-20
2021/12/11 02:22:44;;;;;;;4.77;3.53;;;;;;;20.01;53.48;95652.94;10462404;28;20173;-20
2021/12/11 02:27:51;;;;;;;4.50;2.10;;;;;;;20.00;53.58;95657.16;10467656;28;20109;-20
2021/12/11 02:33:02;;;;;;;3.40;1.70;;;;;;;19.97;53.54;95652.16;10470073;28;20033;-20
2021/12/11 02:38:13;;;;;;;2.67;1.90;;;;;;;20.01;53.50;95668.16;10466748;28;20025;-23
2021/12/11 02:43:24;;;;;;;5.93;1.73;;;;;;;20.00;53.57;95676.66;10469026;28;20346;-20
2021/12/11 02:48:38;;;;;;;2.35;1.40;;;;;;;20.02;53.37;95690.16;10466902;28;20567;-22
2021/12/11 02:53:46;;;;;;;4.32;1.30;;;;;;;20.04;53.40;95690.94;10463540;28;20028;-20
2021/12/11 02:58:53;;;;;;;4.38;2.08;;;;;;;20.00;53.55;95689.38;10459986;28;20025;-21
2021/12/11 03:04:09;;;;;;;3.40;1.80;;;;;;;19.98;53.57;95693.63;10466415;28;20101;-20
2021/12/11 03:09:14;;;;;;;2.28;1.83;;;;;;;19.90;53.56;95691.25;10460351;28;20431;-21
2021/12/11 03:14:18;;;;;;;4.75;1.73;;;;;;;19.97;53.68;95707.19;10459152;28;20037;-20
2021/12/11 03:19:29;;;;;;;5.70;1.85;;;;;;;19.96;53.60;95710.63;10466742;28;20029;-20
2021/12/11 03:24:33;;;;;;;4.07;1.90;;;;;;;19.97;53.65;95712.28;10462329;28;20033;-20
2021/12/11 03:29:33;;;;;;;3.58;1.88;;;;;;;20.00;53.55;95732.56;10461417;28;20079;-20
2021/12/11 03:34:35;;;;;;;6.60;2.10;;;;;;;19.96;53.33;95736.00;10469210;28;20182;-21
2021/12/11 03:39:40;;;;;;;4.32;1.88;;;;;;;20.04;53.31;95742.66;10463858;28;20035;-21
2021/12/11 03:44:41;;;;;;;3.83;1.73;;;;;;;20.02;53.46;95751.13;10464841;28;20045;-20
2021/12/11 03:49:42;;;;;;;5.45;2.00;;;;;;;19.99;53.60;95766.44;10461465;28;20032;-20
2021/12/11 03:54:45;;;;;;;2.08;1.55;;;;;;;19.97;53.62;95773.25;10461110;28;20537;-20
2021/12/11 03:59:48;;;;;;;3.35;1.60;;;;;;;19.96;53.83;95784.28;10464018;28;20036;-20
2021/12/11 04:04:57;;;;;;;4.90;2.05;;;;;;;19.97;53.75;95789.34;10464118;28;20166;-21
2021/12/11 04:09:58;;;;;;;4.57;1.80;;;;;;;19.97;53.50;95796.13;10466500;28;20024;-21
2021/12/11 04:14:58;;;;;;;4.87;1.63;;;;;;;19.99;53.59;95796.91;10460002;28;20493;-20
2021/12/11 04:20:04;;;;;;;3.92;1.60;;;;;;;19.95;53.51;95796.16;10460469;28;20463;-21
2021/12/11 04:25:08;;;;;;;2.28;1.40;;;;;;;20.00;53.55;95824.03;10464061;28;20041;-21
2021/12/11 04:30:11;;;;;;;6.43;1.48;;;;;;;19.80;53.64;95793.94;10462065;28;20090;-21
2021/12/11 04:35:14;;;;;;;2.85;1.50;;;;;;;19.97;53.68;95854.56;10464360;28;20036;-21
2021/12/11 04:40:20;;;;;;;2.75;1.63;;;;;;;19.96;53.62;95870.66;10460265;28;20031;-20
2021/12/11 04:45:33;;;;;;;4.03;2.45;;;;;;;19.88;53.79;95860.66;10464438;28;20707;-20
2021/12/11 05:01:07;;;;;;;1.48;1.15;;;;;;;19.99;53.26;95906.16;10463084;28;20404;-20
2021/12/11 05:06:38;;;;;;;3.63;1.42;;;;;;;20.07;53.06;95917.06;10457640;28;20032;-20
2021/12/11 05:11:44;;;;;;;4.03;1.70;;;;;;;19.94;53.31;95907.97;10463557;28;20174;-20
2021/12/11 05:16:45;;;;;;;6.00;2.37;;;;;;;20.05;53.25;95934.03;10459009;28;20032;-20
2021/12/11 05:21:45;;;;;;;2.83;1.65;;;;;;;20.08;53.20;95939.09;10456620;28;20290;-20
2021/12/11 05:26:46;;;;;;;3.60;1.35;;;;;;;20.07;53.21;95952.63;10468653;28;20550;-20
2021/12/11 05:31:47;;;;;;;1.95;1.48;;;;;;;20.05;53.29;95959.44;10467676;28;20400;-20
2021/12/11 05:36:48;;;;;;;3.30;1.08;;;;;;;20.06;53.18;95972.13;10464850;28;20028;-21
2021/12/11 05:41:49;;;;;;;2.60;1.73;;;;;;;19.96;53.33;95974.81;10458086;28;20508;-20
2021/12/11 05:46:52;;;;;;;3.08;1.27;;;;;;;20.01;53.48;95988.31;10457230;28;20067;-20
2021/12/11 05:51:53;;;;;;;2.35;1.15;;;;;;;20.06;53.42;95996.69;10455192;28;20036;-20
2021/12/11 05:57:01;;;;;;;3.15;1.30;;;;;;;20.03;53.46;96004.34;10466612;28;20036;-22
2021/12/11 06:02:17;;;;;;;2.70;1.73;;;;;;;20.00;53.32;96019.66;10458317;28;20428;-20
2021/12/11 06:07:21;;;;;;;3.95;1.35;;;;;;;19.98;53.52;96021.34;10463262;28;20037;-20
2021/12/11 06:12:22;;;;;;;2.35;1.58;;;;;;;19.99;53.41;96040.81;10472211;28;20459;-21
2021/12/11 06:17:29;;;;;;;1.60;1.20;;;;;;;19.99;53.54;96056.91;10466795;28;20115;-20
2021/12/11 06:22:33;;;;;;;2.80;1.20;;;;;;;19.99;53.76;96066.22;10465385;28;20040;-20
2021/12/11 06:27:34;;;;;;;5.22;1.60;;;;;;;19.90;53.82;96061.28;10464294;28;20063;-20
2021/12/11 06:32:34;;;;;;;1.90;1.10;;;;;;;20.01;53.80;96082.31;10457108;28;20087;-20
2021/12/11 06:37:35;;;;;;;3.28;1.30;;;;;;;20.09;53.64;96100.84;10462752;28;20036;-20
2021/12/11 06:42:36;;;;;;;2.22;1.10;;;;;;;19.99;53.88;96095.03;10460625;28;20057;-20
2021/12/11 06:47:36;;;;;;;1.92;1.00;;;;;;;20.07;53.46;96116.13;10462914;28;20119;-20
2021/12/11 06:52:36;;;;;;;4.18;1.13;;;;;;;20.08;53.42;96122.88;10459301;28;20078;-20
2021/12/11 06:57:37;;;;;;;2.45;1.38;;;;;;;20.01;53.21;96125.50;10471818;28;20033;-20
2021/12/11 07:02:37;;;;;;;6.35;1.48;;;;;;;20.08;53.11;96144.91;10461310;28;20032;-21
2021/12/11 07:07:41;;;;;;;2.67;1.10;;;;;;;20.07;52.82;96159.31;10472195;28;20024;-20
2021/12/11 07:12:42;;;;;;;3.00;1.10;;;;;;;20.06;52.94;96169.50;10466601;28;20825;-21
2021/12/11 07:17:42;;;;;;;2.03;1.20;;;;;;;20.05;51.63;96177.97;10471774;28;20053;-21
2021/12/11 07:22:44;;;;;;;2.35;1.05;;;;;;;20.14;51.81;96198.16;10465462;28;20047;-20
2021/12/11 07:27:45;;;;;;;2.88;1.33;;;;;;;20.11;51.34;96204.13;10466670;28;20855;-20
2021/12/11 07:32:46;;;;;;;8.23;1.40;;;;;;;19.85;47.16;96223.13;10468815;28;20686;-20
2021/12/11 07:37:49;;;;;;;3.88;1.58;;;;;;;19.45;45.89;96227.00;10465118;28;20089;-20
2021/12/11 07:42:52;;;;;;;1.20;0.90;;;;;;;19.36;44.55;96243.22;10462770;28;20036;-20
2021/12/11 07:47:53;;;;;;;6.43;1.88;;;;;;;19.78;48.94;96247.78;10468415;28;20040;-20
2021/12/11 07:52:54;;;;;;;1.88;0.50;;;;;;;17.47;47.59;96281.66;10460796;28;20039;-21
2021/12/11 07:57:54;;;;;;;0.85;0.60;;;;;;;16.05;44.27;96295.13;10460892;28;20554;-22
2021/12/11 08:02:55;;;;;;;1.10;0.70;;;;;;;15.70;44.13;96296.66;10461021;28;20040;-22
2021/12/11 08:08:00;;;;;;;3.13;0.90;;;;;;;17.77;43.00;96322.91;10459968;28;20299;-20
2021/12/11 08:13:03;;;;;;;4.25;1.20;;;;;;;18.39;42.76;96325.16;10455784;28;20512;-20
2021/12/11 08:18:07;;;;;;;2.05;0.90;;;;;;;19.01;43.50;96334.00;10462130;28;20020;-20
2021/12/11 08:23:09;;;;;;;2.50;1.23;;;;;;;19.29;43.81;96334.66;10455805;28;20119;-21
2021/12/11 08:28:13;;;;;;;1.50;0.70;;;;;;;19.54;44.84;96359.78;10459525;28;20033;-20
2021/12/11 08:33:15;;;;;;;2.08;0.80;;;;;;;19.69;44.93;96371.50;10465555;28;20052;-21
2021/12/11 08:38:17;;;;;;;3.95;1.08;;;;;;;19.76;45.58;96383.28;10460133;28;20055;-20
2021/12/11 08:43:20;;;;;;;2.88;0.70;;;;;;;19.66;45.94;96377.44;10458851;28;20090;-20
2021/12/11 08:48:22;;;;;;;3.40;2.30;;;;;;;19.61;45.07;96412.19;10460848;28;20477;-20
2021/12/11 08:53:22;;;;;;;4.47;1.77;;;;;;;19.74;45.95;96401.06;10470493;28;20032;-21
2021/12/11 08:58:28;;;;;;;2.65;1.33;;;;;;;19.80;46.67;96413.72;10459956;28;20508;-21
2021/12/11 09:03:52;;;;;;;4.00;1.27;;;;;;;19.80;47.03;96410.31;10460780;28;20539;-20
2021/12/11 09:08:57;;;;;;;3.60;1.20;;;;;;;19.89;47.67;96435.63;10466808;28;20052;-20
2021/12/11 09:14:05;;;;;;;3.60;1.40;;;;;;;19.86;47.92;96440.75;10452225;28;20043;-20
2021/12/11 09:19:29;;;;;;;8.57;1.98;;;;;;;19.80;48.75;96463.66;10454124;28;20120;-20
2021/12/11 09:24:36;;;;;;;3.63;1.58;;;;;;;19.11;43.19;96471.81;10453014;28;20385;-21
2021/12/11 09:30:00;;;;;;;10.60;1.45;;;;;;;19.55;47.36;96485.91;10456002;28;20107;-20
2021/12/11 09:35:21;;;;;;;12.40;1.92;;;;;;;19.66;47.87;96495.97;10454484;28;20036;-20
2021/12/11 09:40:36;;;;;;;4.93;1.20;;;;;;;19.63;48.47;96495.97;10455617;28;20040;-21
2021/12/11 09:45:41;;;;;;;2.95;1.45;;;;;;;19.67;48.31;96518.81;10463077;28;20033;-20
2021/12/11 09:50:54;;;;;;;6.53;1.65;;;;;;;19.65;48.21;96502.75;10468502;28;20037;-20
2021/12/11 09:55:56;;;;;;;5.22;1.55;;;;;;;19.87;48.64;96533.88;10474954;28;20039;-21
2021/12/11 10:01:03;;;;;;;2.92;1.42;;;;;;;19.89;49.17;96544.88;10468399;28;20048;-20
2021/12/11 10:06:25;;;;;;;3.22;1.50;;;;;;;19.91;49.29;96558.44;10474105;28;20042;-20
2021/12/11 10:11:30;;;;;;;6.07;1.58;;;;;;;19.77;48.49;96557.69;10467624;28;20029;-20
2021/12/11 10:16:35;;;;;;;5.65;1.80;;;;;;;19.83;49.38;96563.56;10464207;28;20063;-20
2021/12/11 10:21:40;;;;;;;4.20;1.63;;;;;;;19.86;49.48;96552.53;10470638;28;20025;-21
2021/12/11 10:26:40;;;;;;;7.40;1.48;;;;;;;19.88;49.67;96555.91;10461685;28;20064;-21
2021/12/11 10:31:55;;;;;;;1.83;0.95;;;;;;;19.87;49.88;96562.69;10456755;28;20041;-20
2021/12/11 10:37:07;;;;;;;5.30;1.13;;;;;;;19.93;50.11;96562.63;10463162;28;20099;-20
2021/12/11 10:42:08;;;;;;;2.80;1.00;;;;;;;19.96;49.96;96579.53;10454998;28;20037;-20
2021/12/11 10:47:19;;;;;;;3.05;1.40;;;;;;;19.79;49.76;96567.00;10468414;28;20093;-21
2021/12/11 10:52:27;;;;;;;25.60;12.05;;;;;;;19.86;48.76;96598.25;10464440;28;20033;-21
2021/12/11 10:57:29;;;;;;;11.25;4.53;;;;;;;19.86;49.57;96604.16;10460677;28;20124;-20
2021/12/11 11:02:31;;;;;;;7.88;3.28;;;;;;;19.86;49.84;96601.63;10473989;28;20028;-20
2021/12/11 11:07:32;;;;;;;8.07;2.92;;;;;;;19.89;49.77;96608.41;10467869;28;20079;-20
2021/12/11 11:12:33;;;;;;;6.68;2.80;;;;;;;19.89;50.02;96613.47;10467881;28;20060;-20
2021/12/11 11:17:34;;;;;;;6.88;3.67;;;;;;;19.88;50.07;96610.09;10463417;28;20033;-20
2021/12/11 11:22:39;;;;;;;7.20;3.85;;;;;;;19.75;46.59;96613.56;10464438;28;20096;-20
2021/12/11 11:27:43;;;;;;;8.90;4.45;;;;;;;19.89;49.09;96626.19;10468801;28;20078;-20
2021/12/11 11:32:44;;;;;;;10.90;4.05;;;;;;;19.95;49.12;96628.69;10470737;28;20151;-21
2021/12/11 11:37:52;;;;;;;7.78;4.32;;;;;;;19.96;49.51;96632.91;10460954;28;20045;-20
2021/12/11 11:42:53;;;;;;;7.32;4.45;;;;;;;19.93;49.28;96631.22;10459652;28;20032;-20
2021/12/11 11:47:55;;;;;;;7.60;4.40;;;;;;;19.96;49.42;96638.00;10470125;28;20025;-22
2021/12/11 11:52:55;;;;;;;10.98;4.88;;;;;;;19.95;49.44;96642.25;10461337;28;20032;-20
2021/12/11 11:57:58;;;;;;;9.23;4.43;;;;;;;19.82;48.92;96644.84;10464138;28;20497;-20
2021/12/11 12:02:58;;;;;;;12.63;5.22;;;;;;;19.88;49.50;96654.97;10461142;28;20029;-20
2021/12/11 12:07:59;;;;;;;17.08;7.80;;;;;;;19.88;50.05;96658.38;10467143;28;20033;-20
2021/12/11 12:13:00;;;;;;;16.03;8.73;;;;;;;19.98;49.67;96670.16;10464285;28;20489;-20
2021/12/11 12:18:00;;;;;;;23.63;11.25;;;;;;;19.91;49.85;96665.97;10470552;28;20036;-21
2021/12/11 12:23:02;;;;;;;21.73;10.07;;;;;;;19.90;49.44;96676.13;10462170;28;20029;-20
2021/12/11 12:28:03;;;;;;;14.30;9.35;;;;;;;19.91;49.76;96686.31;10463112;28;20037;-20
2021/12/11 12:33:05;;;;;;;19.15;9.10;;;;;;;19.89;50.14;96684.63;10450388;28;20048;-21
2021/12/11 12:38:10;;;;;;;15.88;9.10;;;;;;;19.85;50.49;96677.88;10456221;28;20033;-21
2021/12/11 12:49:04;;;;;;;28.33;14.32;;;;;;;19.96;50.43;96702.38;10340904;28;20050;-19
2021/12/11 12:54:10;;;;;;;24.00;12.32;;;;;;;19.98;50.40;96709.97;10434547;28;20040;-19
2021/12/11 12:59:17;;;;;;;20.08;12.27;;;;;;;19.98;50.33;96699.81;10457633;28;20048;-19
2021/12/11 13:04:25;;;;;;;21.38;12.00;;;;;;;20.02;50.00;96712.47;10459482;28;20033;-19
2021/12/11 13:09:34;;;;;;;19.15;10.95;;;;;;;19.85;50.75;96705.84;10455765;28;20044;-20
2021/12/11 13:14:36;;;;;;;21.88;11.18;;;;;;;19.92;49.62;96725.28;10462858;28;20119;-19
2021/12/11 13:19:42;;;;;;;18.10;9.43;;;;;;;19.90;49.04;96720.19;10463064;28;20116;-18
2021/12/11 13:24:48;;;;;;;17.65;10.07;;;;;;;19.96;49.27;96752.34;10466321;28;20074;-19
2021/12/11 13:29:53;;;;;;;15.43;9.15;;;;;;;19.99;48.67;96760.78;10469875;28;20028;-19
2021/12/11 13:34:57;;;;;;;16.73;8.75;;;;;;;19.95;49.27;96768.44;10472246;28;20514;-19
2021/12/11 13:39:59;;;;;;;19.35;9.40;;;;;;;20.02;48.69;96778.56;10469317;28;20649;-19
2021/12/11 13:45:06;;;;;;;16.65;9.93;;;;;;;20.05;48.68;96790.44;10474823;28;20117;-19
2021/12/11 13:50:17;;;;;;;17.65;10.40;;;;;;;20.05;48.96;96803.16;10466379;28;20032;-19
2021/12/11 13:55:19;;;;;;;15.43;9.40;;;;;;;20.04;48.50;96809.06;10475010;28;20458;-19
2021/12/11 14:00:28;;;;;;;20.27;9.07;;;;;;;19.76;48.24;96785.47;10468623;28;20059;-19
2021/12/11 14:05:32;;;;;;;16.65;9.32;;;;;;;19.85;49.13;96815.09;10464513;28;20037;-19
2021/12/11 14:10:35;;;;;;;16.83;8.63;;;;;;;19.90;49.40;96834.53;10459802;28;20559;-19
2021/12/11 14:15:37;;;;;;;14.68;8.85;;;;;;;19.90;49.33;96839.63;10466962;28;20039;-19
2021/12/11 14:20:38;;;;;;;13.30;7.78;;;;;;;19.91;49.38;96850.63;10466102;28;20048;-19
2021/12/11 14:25:40;;;;;;;13.60;7.22;;;;;;;19.93;49.74;96859.09;10471300;28;20412;-19
2021/12/11 14:30:47;;;;;;;14.50;8.63;;;;;;;19.98;50.00;96862.44;10469466;28;20110;-20
2021/12/11 14:35:49;;;;;;;12.75;8.07;;;;;;;20.01;50.30;96873.44;10459596;28;20036;-19
2021/12/11 14:40:53;;;;;;;12.43;6.68;;;;;;;20.03;48.92;96876.00;10466047;28;20404;-19
2021/12/11 14:45:57;;;;;;;12.73;6.65;;;;;;;19.92;48.85;96872.66;10461935;28;20032;-19
2021/12/11 14:51:02;;;;;;;13.68;7.65;;;;;;;20.00;49.68;96906.53;10462682;28;20041;-20
2021/12/11 14:56:10;;;;;;;11.50;6.43;;;;;;;19.97;49.60;96909.91;10467365;28;20123;-20
2021/12/11 15:01:23;;;;;;;11.02;6.55;;;;;;;19.98;49.38;96929.38;10465291;28;20389;-19
2021/12/11 15:06:23;;;;;;;11.38;6.30;;;;;;;19.95;49.73;96937.03;10464566;28;20037;-19
2021/12/11 15:11:28;;;;;;;12.50;6.57;;;;;;;19.99;50.84;96940.38;10465542;28;20520;-20
2021/12/11 15:16:28;;;;;;;10.30;6.30;;;;;;;19.92;49.99;96946.34;10458559;28;20041;-20
2021/12/11 15:21:33;;;;;;;23.90;8.13;;;;;;;19.96;50.19;96956.50;10463076;28;20029;-20
2021/12/11 15:26:37;;;;;;;18.88;6.10;;;;;;;19.60;50.27;96953.16;10466152;28;20033;-20
2021/12/11 15:31:42;;;;;;;12.52;5.70;;;;;;;19.55;50.74;96968.41;10462363;28;20486;-20
2021/12/11 15:36:45;;;;;;;15.32;6.03;;;;;;;19.52;51.12;96975.19;10468915;28;20044;-20
2021/12/11 15:41:48;;;;;;;11.40;5.40;;;;;;;19.47;51.33;96979.41;10469674;28;20694;-20
2021/12/11 15:46:49;;;;;;;10.27;5.38;;;;;;;19.22;51.06;96953.16;10467280;28;20076;-20
2021/12/11 15:51:49;;;;;;;10.20;5.53;;;;;;;19.41;51.00;96979.41;10458705;28;20021;-21
2021/12/11 15:56:51;;;;;;;11.13;6.05;;;;;;;19.32;51.28;96959.06;10467101;28;20035;-20
2021/12/11 16:01:53;;;;;;;11.65;4.90;;;;;;;19.40;51.28;96978.56;10465041;28;20048;-22
2021/12/11 16:06:55;;;;;;;9.80;5.13;;;;;;;19.28;51.05;96968.41;10466316;28;20108;-20
2021/12/11 16:12:00;;;;;;;7.28;4.55;;;;;;;19.37;51.03;96993.81;10464461;28;20722;-20
2021/12/11 16:17:03;;;;;;;10.43;5.22;;;;;;;19.41;51.34;97012.44;10476627;28;20036;-20
2021/12/11 16:22:12;;;;;;;8.35;5.22;;;;;;;19.38;51.12;97025.09;10460103;28;20020;-20
2021/12/11 16:27:14;;;;;;;8.38;4.95;;;;;;;19.24;51.28;97006.47;10463997;28;20110;-21
2021/12/11 16:32:15;;;;;;;12.52;5.70;;;;;;;19.37;51.36;97034.44;10470954;28;20420;-20
2021/12/11 16:37:28;;;;;;;8.70;4.82;;;;;;;19.32;51.66;97040.31;10467616;28;20044;-20
2021/12/11 16:42:38;;;;;;;9.18;4.97;;;;;;;19.29;51.55;97050.47;10458812;28;20021;-21
2021/12/11 16:47:38;;;;;;;8.13;4.18;;;;;;;19.31;51.58;97056.41;10470094;28;20032;-21
2021/12/11 16:52:38;;;;;;;7.25;4.28;;;;;;;19.31;51.38;97067.41;10466210;28;20033;-21
2021/12/11 16:57:40;;;;;;;5.97;4.07;;;;;;;19.33;51.50;97067.41;10469960;28;20041;-21
2021/12/11 17:02:40;;;;;;;10.88;4.32;;;;;;;19.06;51.47;97041.91;10461088;28;20033;-20
2021/12/11 17:07:42;;;;;;;8.13;4.18;;;;;;;19.32;51.48;97089.41;10469328;28;20649;-21
2021/12/11 17:12:42;;;;;;;7.05;3.95;;;;;;;19.33;51.41;97097.88;10465012;28;20032;-20
2021/12/11 17:17:43;;;;;;;7.53;4.45;;;;;;;19.30;51.33;97096.19;10460863;28;20351;-20
2021/12/11 17:22:46;;;;;;;9.32;4.47;;;;;;;19.20;51.55;97091.06;10463008;28;20044;-20
2021/12/11 17:27:47;;;;;;;8.23;4.53;;;;;;;19.27;51.77;97113.91;10462941;28;20033;-20
2021/12/11 17:32:48;;;;;;;5.72;3.80;;;;;;;19.29;51.53;97119.00;10468318;28;20033;-21
2021/12/11 17:37:49;;;;;;;9.07;4.60;;;;;;;19.29;50.91;97112.25;10465487;28;20492;-21
2021/12/11 17:42:49;;;;;;;10.68;4.45;;;;;;;19.23;51.18;97126.59;10466409;28;20414;-21
2021/12/11 17:47:58;;;;;;;20.17;4.57;;;;;;;19.41;52.11;97129.22;10468198;28;20029;-20
2021/12/11 17:53:00;;;;;;;9.07;3.92;;;;;;;19.26;51.41;97124.09;10457108;28;20036;-21
2021/12/11 17:58:01;;;;;;;7.97;4.70;;;;;;;19.37;51.54;97141.06;10463601;28;20025;-21
2021/12/11 18:03:02;;;;;;;10.43;4.10;;;;;;;19.35;51.75;97139.34;10466724;28;20400;-22
2021/12/11 18:08:07;;;;;;;7.00;4.38;;;;;;;19.18;51.93;97129.09;10463017;28;20541;-21
2021/12/11 18:13:21;;;;;;;6.85;3.53;;;;;;;19.28;52.02;97152.88;10473610;28;20071;-21
2021/12/11 18:18:28;;;;;;;6.78;3.55;;;;;;;19.26;52.12;97154.56;10459668;28;20037;-21
2021/12/11 18:23:32;;;;;;;6.95;3.50;;;;;;;19.27;52.03;97163.88;10467499;28;20052;-21
2021/12/11 18:28:33;;;;;;;5.35;3.78;;;;;;;19.24;52.08;97171.47;10465376;28;20386;-21
2021/12/11 18:33:35;;;;;;;7.53;3.53;;;;;;;19.23;52.32;97177.38;10472918;28;20039;-21
2021/12/11 18:38:37;;;;;;;6.07;3.35;;;;;;;19.12;52.33;97168.84;10467408;28;20024;-21
2021/12/11 18:43:40;;;;;;;4.55;3.55;;;;;;;19.25;52.02;97193.47;10463382;28;20017;-21
2021/12/11 18:48:40;;;;;;;5.22;3.58;;;;;;;19.28;52.12;97207.03;10467325;28;20039;-21
2021/12/11 18:53:45;;;;;;;8.00;4.10;;;;;;;19.08;50.64;97187.44;10463591;28;20045;-21
2021/12/11 18:58:48;;;;;;;7.32;3.55;;;;;;;19.20;52.48;97207.84;10465603;28;20037;-21
2021/12/11 19:03:53;;;;;;;9.93;4.32;;;;;;;19.24;52.41;97214.63;10462861;28;20033;-21
2021/12/11 19:08:55;;;;;;;4.95;3.40;;;;;;;19.12;52.88;97200.16;10457545;28;20033;-20
2021/12/11 19:13:57;;;;;;;6.38;3.40;;;;;;;19.25;52.70;97221.41;10456475;28;20029;-21
2021/12/11 19:18:59;;;;;;;3.90;3.13;;;;;;;19.11;53.23;97218.78;10462118;28;20032;-22
2021/12/11 19:24:03;;;;;;;4.28;2.95;;;;;;;19.29;52.96;97245.97;10455811;28;20477;-21
2021/12/11 19:29:08;;;;;;;4.85;3.45;;;;;;;19.29;52.89;97248.50;10461792;28;20033;-21
2021/12/11 19:34:09;;;;;;;6.30;3.33;;;;;;;19.28;52.93;97259.50;10460351;28;20036;-21
2021/12/11 19:39:33;;;;;;;5.22;3.15;;;;;;;19.25;53.21;97262.03;10465623;28;20021;-21
2021/12/11 19:44:34;;;;;;;7.45;3.17;;;;;;;19.23;53.39;97259.47;10463902;28;20032;-21
2021/12/11 19:49:36;;;;;;;5.38;2.92;;;;;;;18.93;53.57;97216.09;10462985;28;20021;-21
2021/12/11 19:54:41;;;;;;;9.18;3.13;;;;;;;19.22;53.53;97262.00;10460864;28;20033;-21
2021/12/11 19:59:54;;;;;;;4.95;3.10;;;;;;;19.26;53.49;97258.66;10461324;28;20506;-21
2021/12/11 20:04:58;;;;;;;12.90;3.55;;;;;;;19.26;53.84;97263.72;10455376;28;20033;-21
2021/12/11 20:10:10;;;;;;;8.93;3.22;;;;;;;19.26;53.68;97269.63;10455759;28;20178;-21
2021/12/11 20:15:17;;;;;;;7.95;3.30;;;;;;;19.31;53.37;97284.88;10454342;28;20033;-21
2021/12/11 20:20:20;;;;;;;;;;;;;;;19.30;53.74;97285.72;10448667;28;20032;-21
2021/12/11 20:25:21;;;;;;;6.45;3.67;;;;;;;19.29;53.43;97287.44;10454672;28;19932;-21
2021/12/11 20:30:35;;;;;;;6.63;3.70;;;;;;;19.26;53.48;97273.88;10456850;28;20029;-21
2021/12/11 20:35:43;;;;;;;7.18;3.67;;;;;;;19.27;53.29;97285.72;10456823;28;20083;-21
2021/12/11 20:40:57;;;;;;;8.40;3.45;;;;;;;19.26;53.54;97289.94;10451323;28;20032;-21
2021/12/11 20:46:00;;;;;;;8.35;3.95;;;;;;;19.27;53.38;97293.34;10457709;28;20037;-21
2021/12/11 20:51:08;;;;;;;6.80;3.05;;;;;;;19.08;53.87;97283.88;10450949;28;20040;-22
2021/12/11 20:56:10;;;;;;;6.10;2.83;;;;;;;19.26;53.33;97294.19;10453129;28;20063;-21
2021/12/11 21:01:22;;;;;;;6.90;3.63;;;;;;;19.27;53.31;97290.81;10458304;28;20579;-21
2021/12/11 21:06:34;;;;;;;5.65;3.03;;;;;;;19.30;53.16;97306.03;10456251;28;20033;-21
2021/12/11 21:11:42;;;;;;;5.50;3.10;;;;;;;19.26;53.34;97305.16;10459181;28;20484;-21
2021/12/11 21:16:47;;;;;;;3.38;2.85;;;;;;;19.29;53.16;97310.28;10461784;28;20120;-21
2021/12/11 21:21:52;;;;;;;5.68;3.00;;;;;;;19.31;53.13;97305.19;10451002;28;20031;-21
2021/12/11 21:26:56;;;;;;;4.28;2.65;;;;;;;19.28;53.21;97302.66;10455947;28;20039;-21
2021/12/11 21:32:03;;;;;;;4.90;3.10;;;;;;;19.31;53.10;97313.69;10457636;28;20029;-21
2021/12/11 21:37:06;;;;;;;7.63;3.20;;;;;;;19.26;53.11;97324.66;10464604;28;20036;-21
2021/12/11 21:42:12;;;;;;;3.83;2.33;;;;;;;19.30;53.13;97331.44;10471211;28;20033;-21
2021/12/11 21:47:13;;;;;;;3.17;2.50;;;;;;;19.33;53.27;97336.56;10467385;28;20029;-21
2021/12/11 21:52:22;;;;;;;8.00;2.13;;;;;;;19.34;53.13;97343.31;10463595;28;20118;-21
2021/12/11 21:57:26;;;;;;;7.20;2.60;;;;;;;19.30;53.08;97346.66;10458083;28;20040;-21
2021/12/11 22:02:34;;;;;;;3.47;2.22;;;;;;;19.31;53.20;97354.31;10465362;28;20058;-21
2021/12/11 22:07:37;;;;;;;5.60;2.95;;;;;;;19.15;53.44;97347.38;10476685;28;20033;-21
2021/12/11 22:12:43;;;;;;;4.88;2.72;;;;;;;19.27;53.54;97366.97;10460954;28;20107;-21
2021/12/11 22:17:44;;;;;;;4.13;2.55;;;;;;;19.21;53.55;97364.38;10462131;28;20037;-21
2021/12/11 22:22:46;;;;;;;5.82;2.17;;;;;;;19.20;53.52;97370.28;10465065;28;20405;-21
2021/12/11 22:27:48;;;;;;;5.70;2.20;;;;;;;19.21;53.61;97374.53;10467529;28;20407;-21
2021/12/11 22:32:50;;;;;;;5.10;2.40;;;;;;;19.24;53.32;97387.25;10462020;28;20078;-21
2021/12/11 22:37:52;;;;;;;7.18;2.97;;;;;;;19.20;53.51;97385.53;10464552;28;20028;-21
2021/12/11 22:42:54;;;;;;;5.95;2.08;;;;;;;19.25;53.34;97383.88;10461932;28;20532;-21
2021/12/11 22:47:57;;;;;;;4.05;1.98;;;;;;;19.22;53.31;97383.84;10465730;28;20033;-23
2021/12/11 22:53:04;;;;;;;5.90;3.20;;;;;;;19.22;53.54;97379.63;10463757;28;20036;-21
2021/12/11 22:58:09;;;;;;;3.40;1.95;;;;;;;19.21;53.46;97387.22;10458252;28;20029;-21
2021/12/11 23:03:15;;;;;;;5.05;2.30;;;;;;;19.08;53.46;97365.94;10462251;28;20041;-21
2021/12/11 23:08:18;;;;;;;4.95;2.58;;;;;;;19.25;53.50;97394.03;10474138;28;20028;-21
2021/12/11 23:13:26;;;;;;;10.43;2.35;;;;;;;19.06;53.62;97374.38;10458456;28;20527;-21
2021/12/11 23:18:47;;;;;;;5.07;1.95;;;;;;;19.14;53.46;97375.28;10460251;28;20052;-21
2021/12/11 23:24:05;;;;;;;6.60;2.42;;;;;;;19.01;53.28;97343.03;10464428;28;20067;-21
2021/12/11 23:29:17;;;;;;;3.90;1.92;;;;;;;19.15;53.25;97371.91;10465421;28;20037;-21
2021/12/11 23:34:22;;;;;;;5.05;2.03;;;;;;;19.28;53.38;97396.59;10471149;28;20374;-21
2021/12/11 23:39:45;;;;;;;2.42;2.03;;;;;;;19.24;53.24;97394.88;10456653;28;20064;-21
2021/12/11 23:44:50;;;;;;;3.20;1.98;;;;;;;19.23;53.59;97396.56;10463065;28;20060;-21
2021/12/11 23:49:52;;;;;;;5.60;2.13;;;;;;;19.23;53.74;97398.22;10461893;28;20036;-22
2021/12/11 23:54:54;;;;;;;3.17;2.03;;;;;;;19.26;53.30;97410.97;10458166;28;20025;-21
